sensor_id;sensor_type;location;lat;lon;timestamp;P1;durP1;ratioP1;P2;durP2;ratioP2
23898;SDS011;20544;50.018;20.010;2022-10-16T00:03:07;11.90;;;10.45;;
23898;SDS011;20544;50.018;20.010;2022-10-16T00:06:24;13.05;;;10.43;;
23898;SDS011;20544;50.018;20.010;2022-10-16T00:09:45;12.97;;;11.27;;
23898;SDS011;20544;50.018;20.010;2022-10-16T00:16:16;11.45;;;10.10;;
23898;SDS011;20544;50.018;20.010;2022-10-16T00:19:32;11.60;;;10.18;;
23898;SDS011;20544;50.018;20.010;2022-10-16T00:22:48;12.13;;;10.08;;
23898;SDS011;20544;50.018;20.010;2022-10-16T00:26:07;14.45;;;11.75;;
23898;SDS011;20544;50.018;20.010;2022-10-16T00:29:26;12.98;;;11.20;;
23898;SDS011;20544;50.018;20.010;2022-10-16T00:32:42;14.28;;;10.80;;
23898;SDS011;20544;50.018;20.010;2022-10-16T00:36:00;13.20;;;10.75;;
23898;SDS011;20544;50.018;20.010;2022-10-16T00:42:32;14.45;;;10.10;;
23898;SDS011;20544;50.018;20.010;2022-10-16T00:45:48;12.90;;;11.15;;
23898;SDS011;20544;50.018;20.010;2022-10-16T00:49:05;12.43;;;10.83;;
23898;SDS011;20544;50.018;20.010;2022-10-16T00:52:24;14.43;;;11.88;;
23898;SDS011;20544;50.018;20.010;2022-10-16T00:55:40;16.30;;;11.35;;
23898;SDS011;20544;50.018;20.010;2022-10-16T00:58:57;13.28;;;11.05;;
23898;SDS011;20544;50.018;20.010;2022-10-16T01:02:16;12.15;;;10.45;;
23898;SDS011;20544;50.018;20.010;2022-10-16T01:05:34;11.53;;;10.38;;
23898;SDS011;20544;50.018;20.010;2022-10-16T01:09:00;12.30;;;11.00;;
23898;SDS011;20544;50.018;20.010;2022-10-16T01:12:26;14.90;;;10.58;;
23898;SDS011;20544;50.018;20.010;2022-10-16T01:15:52;12.23;;;10.80;;
23898;SDS011;20544;50.018;20.010;2022-10-16T01:19:13;12.48;;;11.18;;
23898;SDS011;20544;50.018;20.010;2022-10-16T01:22:37;13.30;;;10.93;;
23898;SDS011;20544;50.018;20.010;2022-10-16T01:29:53;14.70;;;10.73;;
23898;SDS011;20544;50.018;20.010;2022-10-16T01:33:17;11.88;;;10.68;;
23898;SDS011;20544;50.018;20.010;2022-10-16T01:36:37;13.25;;;10.63;;
23898;SDS011;20544;50.018;20.010;2022-10-16T01:39:58;15.35;;;11.13;;
23898;SDS011;20544;50.018;20.010;2022-10-16T01:43:20;15.58;;;12.40;;
23898;SDS011;20544;50.018;20.010;2022-10-16T01:49:54;14.05;;;11.13;;
23898;SDS011;20544;50.018;20.010;2022-10-16T01:53:14;12.85;;;10.68;;
23898;SDS011;20544;50.018;20.010;2022-10-16T01:56:32;14.18;;;10.85;;
23898;SDS011;20544;50.018;20.010;2022-10-16T01:59:51;13.20;;;11.30;;
23898;SDS011;20544;50.018;20.010;2022-10-16T02:03:14;13.15;;;10.85;;
23898;SDS011;20544;50.018;20.010;2022-10-16T02:06:34;12.73;;;10.98;;
23898;SDS011;20544;50.018;20.010;2022-10-16T02:09:50;15.30;;;11.85;;
23898;SDS011;20544;50.018;20.010;2022-10-16T02:13:08;16.80;;;12.00;;
23898;SDS011;20544;50.018;20.010;2022-10-16T02:16:33;15.85;;;11.48;;
23898;SDS011;20544;50.018;20.010;2022-10-16T02:19:53;13.10;;;11.70;;
23898;SDS011;20544;50.018;20.010;2022-10-16T02:23:12;13.30;;;11.00;;
23898;SDS011;20544;50.018;20.010;2022-10-16T02:26:33;13.30;;;11.20;;
23898;SDS011;20544;50.018;20.010;2022-10-16T02:29:53;13.65;;;11.25;;
23898;SDS011;20544;50.018;20.010;2022-10-16T02:33:14;13.00;;;11.03;;
23898;SDS011;20544;50.018;20.010;2022-10-16T02:36:33;13.85;;;11.33;;
23898;SDS011;20544;50.018;20.010;2022-10-16T02:39:51;12.65;;;11.35;;
23898;SDS011;20544;50.018;20.010;2022-10-16T02:43:09;13.80;;;11.98;;
23898;SDS011;20544;50.018;20.010;2022-10-16T02:46:26;12.10;;;10.88;;
23898;SDS011;20544;50.018;20.010;2022-10-16T02:49:43;12.58;;;11.25;;
23898;SDS011;20544;50.018;20.010;2022-10-16T02:52:59;14.43;;;10.93;;
23898;SDS011;20544;50.018;20.010;2022-10-16T02:56:15;13.15;;;10.55;;
23898;SDS011;20544;50.018;20.010;2022-10-16T02:59:31;12.43;;;11.13;;
23898;SDS011;20544;50.018;20.010;2022-10-16T03:02:50;13.30;;;10.95;;
23898;SDS011;20544;50.018;20.010;2022-10-16T03:06:06;14.95;;;10.73;;
23898;SDS011;20544;50.018;20.010;2022-10-16T03:09:22;12.88;;;10.88;;
23898;SDS011;20544;50.018;20.010;2022-10-16T03:12:38;15.20;;;10.55;;
23898;SDS011;20544;50.018;20.010;2022-10-16T03:15:54;13.28;;;11.58;;
23898;SDS011;20544;50.018;20.010;2022-10-16T03:19:10;13.45;;;10.90;;
23898;SDS011;20544;50.018;20.010;2022-10-16T03:22:27;13.45;;;11.05;;
23898;SDS011;20544;50.018;20.010;2022-10-16T03:25:43;12.58;;;10.63;;
23898;SDS011;20544;50.018;20.010;2022-10-16T03:28:59;12.73;;;10.28;;
23898;SDS011;20544;50.018;20.010;2022-10-16T03:32:15;12.98;;;9.85;;
23898;SDS011;20544;50.018;20.010;2022-10-16T03:35:36;12.33;;;10.40;;
23898;SDS011;20544;50.018;20.010;2022-10-16T03:38:52;13.18;;;10.85;;
23898;SDS011;20544;50.018;20.010;2022-10-16T03:42:08;12.60;;;10.83;;
23898;SDS011;20544;50.018;20.010;2022-10-16T03:45:24;13.08;;;10.93;;
23898;SDS011;20544;50.018;20.010;2022-10-16T03:48:40;15.10;;;10.70;;
23898;SDS011;20544;50.018;20.010;2022-10-16T03:51:57;13.63;;;10.70;;
23898;SDS011;20544;50.018;20.010;2022-10-16T03:55:13;15.98;;;11.30;;
23898;SDS011;20544;50.018;20.010;2022-10-16T03:58:30;14.13;;;10.30;;
23898;SDS011;20544;50.018;20.010;2022-10-16T04:01:47;13.23;;;10.70;;
23898;SDS011;20544;50.018;20.010;2022-10-16T04:05:03;17.45;;;11.03;;
23898;SDS011;20544;50.018;20.010;2022-10-16T04:08:20;13.15;;;10.90;;
23898;SDS011;20544;50.018;20.010;2022-10-16T04:11:36;12.48;;;10.58;;
23898;SDS011;20544;50.018;20.010;2022-10-16T04:14:56;14.13;;;11.58;;
23898;SDS011;20544;50.018;20.010;2022-10-16T04:18:12;13.73;;;11.33;;
23898;SDS011;20544;50.018;20.010;2022-10-16T04:21:28;12.73;;;10.83;;
23898;SDS011;20544;50.018;20.010;2022-10-16T04:24:45;14.05;;;11.40;;
23898;SDS011;20544;50.018;20.010;2022-10-16T04:28:01;13.33;;;11.25;;
23898;SDS011;20544;50.018;20.010;2022-10-16T04:31:17;13.63;;;11.40;;
23898;SDS011;20544;50.018;20.010;2022-10-16T04:34:33;14.83;;;10.90;;
23898;SDS011;20544;50.018;20.010;2022-10-16T04:37:50;15.03;;;12.03;;
23898;SDS011;20544;50.018;20.010;2022-10-16T04:41:08;14.05;;;11.05;;
23898;SDS011;20544;50.018;20.010;2022-10-16T04:44:24;12.60;;;11.15;;
23898;SDS011;20544;50.018;20.010;2022-10-16T04:47:40;14.53;;;10.80;;
23898;SDS011;20544;50.018;20.010;2022-10-16T04:50:56;14.30;;;11.30;;
23898;SDS011;20544;50.018;20.010;2022-10-16T04:54:12;15.53;;;11.05;;
23898;SDS011;20544;50.018;20.010;2022-10-16T04:57:29;13.55;;;10.93;;
23898;SDS011;20544;50.018;20.010;2022-10-16T05:00:45;12.70;;;11.23;;
23898;SDS011;20544;50.018;20.010;2022-10-16T05:04:01;12.45;;;10.85;;
23898;SDS011;20544;50.018;20.010;2022-10-16T05:07:17;14.93;;;10.95;;
23898;SDS011;20544;50.018;20.010;2022-10-16T05:10:35;12.73;;;10.83;;
23898;SDS011;20544;50.018;20.010;2022-10-16T05:13:52;16.23;;;10.48;;
23898;SDS011;20544;50.018;20.010;2022-10-16T05:17:10;15.00;;;12.13;;
23898;SDS011;20544;50.018;20.010;2022-10-16T05:20:26;14.48;;;10.68;;
23898;SDS011;20544;50.018;20.010;2022-10-16T05:23:42;15.15;;;11.60;;
23898;SDS011;20544;50.018;20.010;2022-10-16T05:26:58;14.45;;;12.23;;
23898;SDS011;20544;50.018;20.010;2022-10-16T05:30:14;15.43;;;12.80;;
23898;SDS011;20544;50.018;20.010;2022-10-16T05:33:30;14.15;;;11.85;;
23898;SDS011;20544;50.018;20.010;2022-10-16T05:36:48;13.05;;;11.55;;
23898;SDS011;20544;50.018;20.010;2022-10-16T05:40:05;19.60;;;12.13;;
23898;SDS011;20544;50.018;20.010;2022-10-16T05:43:23;17.23;;;12.45;;
23898;SDS011;20544;50.018;20.010;2022-10-16T05:46:40;16.38;;;12.00;;
23898;SDS011;20544;50.018;20.010;2022-10-16T05:49:57;15.03;;;13.05;;
23898;SDS011;20544;50.018;20.010;2022-10-16T05:53:13;13.48;;;11.58;;
23898;SDS011;20544;50.018;20.010;2022-10-16T05:56:31;13.75;;;12.13;;
23898;SDS011;20544;50.018;20.010;2022-10-16T05:59:47;16.15;;;12.28;;
23898;SDS011;20544;50.018;20.010;2022-10-16T06:03:03;16.40;;;12.50;;
23898;SDS011;20544;50.018;20.010;2022-10-16T06:06:20;14.43;;;11.78;;
23898;SDS011;20544;50.018;20.010;2022-10-16T06:09:43;18.03;;;12.28;;
23898;SDS011;20544;50.018;20.010;2022-10-16T06:13:01;15.95;;;12.00;;
23898;SDS011;20544;50.018;20.010;2022-10-16T06:16:17;14.83;;;12.38;;
23898;SDS011;20544;50.018;20.010;2022-10-16T06:19:33;17.03;;;14.13;;
23898;SDS011;20544;50.018;20.010;2022-10-16T06:22:49;16.45;;;11.93;;
23898;SDS011;20544;50.018;20.010;2022-10-16T06:26:06;14.38;;;12.55;;
23898;SDS011;20544;50.018;20.010;2022-10-16T06:29:25;14.75;;;12.83;;
23898;SDS011;20544;50.018;20.010;2022-10-16T06:32:41;14.43;;;11.60;;
23898;SDS011;20544;50.018;20.010;2022-10-16T06:36:01;15.78;;;13.05;;
23898;SDS011;20544;50.018;20.010;2022-10-16T06:39:19;16.33;;;13.00;;
23898;SDS011;20544;50.018;20.010;2022-10-16T06:42:36;14.25;;;12.53;;
23898;SDS011;20544;50.018;20.010;2022-10-16T06:45:52;14.30;;;12.68;;
23898;SDS011;20544;50.018;20.010;2022-10-16T06:49:10;15.55;;;13.75;;
23898;SDS011;20544;50.018;20.010;2022-10-16T06:52:29;14.60;;;13.08;;
23898;SDS011;20544;50.018;20.010;2022-10-16T06:55:46;16.88;;;12.55;;
23898;SDS011;20544;50.018;20.010;2022-10-16T07:02:21;20.28;;;13.40;;
23898;SDS011;20544;50.018;20.010;2022-10-16T07:05:38;16.23;;;13.50;;
23898;SDS011;20544;50.018;20.010;2022-10-16T07:08:55;16.33;;;12.60;;
23898;SDS011;20544;50.018;20.010;2022-10-16T07:12:13;18.33;;;12.63;;
23898;SDS011;20544;50.018;20.010;2022-10-16T07:15:31;15.35;;;12.90;;
23898;SDS011;20544;50.018;20.010;2022-10-16T07:18:47;16.45;;;13.48;;
23898;SDS011;20544;50.018;20.010;2022-10-16T07:22:06;17.40;;;14.05;;
23898;SDS011;20544;50.018;20.010;2022-10-16T07:25:22;17.05;;;13.43;;
23898;SDS011;20544;50.018;20.010;2022-10-16T07:28:38;15.90;;;13.53;;
23898;SDS011;20544;50.018;20.010;2022-10-16T07:31:56;16.75;;;13.98;;
23898;SDS011;20544;50.018;20.010;2022-10-16T07:35:13;16.45;;;13.40;;
23898;SDS011;20544;50.018;20.010;2022-10-16T07:38:29;17.40;;;14.08;;
23898;SDS011;20544;50.018;20.010;2022-10-16T07:41:45;18.33;;;14.53;;
23898;SDS011;20544;50.018;20.010;2022-10-16T07:45:01;18.60;;;14.18;;
23898;SDS011;20544;50.018;20.010;2022-10-16T07:48:20;15.98;;;13.78;;
23898;SDS011;20544;50.018;20.010;2022-10-16T07:51:38;17.68;;;13.80;;
23898;SDS011;20544;50.018;20.010;2022-10-16T07:54:54;20.75;;;15.08;;
23898;SDS011;20544;50.018;20.010;2022-10-16T07:58:11;16.78;;;13.25;;
23898;SDS011;20544;50.018;20.010;2022-10-16T08:01:28;14.63;;;12.65;;
23898;SDS011;20544;50.018;20.010;2022-10-16T08:04:49;18.50;;;13.75;;
23898;SDS011;20544;50.018;20.010;2022-10-16T08:08:06;17.65;;;13.08;;
23898;SDS011;20544;50.018;20.010;2022-10-16T08:11:25;16.70;;;12.83;;
23898;SDS011;20544;50.018;20.010;2022-10-16T08:14:41;16.10;;;12.73;;
23898;SDS011;20544;50.018;20.010;2022-10-16T08:18:00;16.75;;;12.30;;
23898;SDS011;20544;50.018;20.010;2022-10-16T08:21:18;16.68;;;12.05;;
23898;SDS011;20544;50.018;20.010;2022-10-16T08:24:36;14.83;;;12.83;;
23898;SDS011;20544;50.018;20.010;2022-10-16T08:27:52;13.98;;;12.40;;
23898;SDS011;20544;50.018;20.010;2022-10-16T08:31:10;15.63;;;12.63;;
23898;SDS011;20544;50.018;20.010;2022-10-16T08:34:28;15.43;;;12.63;;
23898;SDS011;20544;50.018;20.010;2022-10-16T08:37:45;15.60;;;12.18;;
23898;SDS011;20544;50.018;20.010;2022-10-16T08:41:15;15.38;;;12.05;;
23898;SDS011;20544;50.018;20.010;2022-10-16T08:44:37;15.03;;;11.45;;
23898;SDS011;20544;50.018;20.010;2022-10-16T08:48:21;13.40;;;11.58;;
23898;SDS011;20544;50.018;20.010;2022-10-16T08:51:41;15.18;;;12.03;;
23898;SDS011;20544;50.018;20.010;2022-10-16T08:54:57;14.43;;;11.53;;
23898;SDS011;20544;50.018;20.010;2022-10-16T08:58:18;13.83;;;12.43;;
23898;SDS011;20544;50.018;20.010;2022-10-16T09:01:39;42.10;;;36.55;;
23898;SDS011;20544;50.018;20.010;2022-10-16T09:05:05;20.38;;;16.98;;
23898;SDS011;20544;50.018;20.010;2022-10-16T09:08:42;14.03;;;11.60;;
23898;SDS011;20544;50.018;20.010;2022-10-16T09:12:15;12.53;;;10.55;;
23898;SDS011;20544;50.018;20.010;2022-10-16T09:15:35;14.03;;;10.25;;
23898;SDS011;20544;50.018;20.010;2022-10-16T09:18:59;10.78;;;9.28;;
23898;SDS011;20544;50.018;20.010;2022-10-16T09:22:19;12.03;;;9.43;;
23898;SDS011;20544;50.018;20.010;2022-10-16T09:25:40;10.55;;;9.30;;
23898;SDS011;20544;50.018;20.010;2022-10-16T09:29:00;11.28;;;9.55;;
23898;SDS011;20544;50.018;20.010;2022-10-16T09:32:17;11.18;;;8.55;;
23898;SDS011;20544;50.018;20.010;2022-10-16T09:35:37;10.60;;;8.30;;
23898;SDS011;20544;50.018;20.010;2022-10-16T09:39:03;10.25;;;7.88;;
23898;SDS011;20544;50.018;20.010;2022-10-16T09:42:27;11.18;;;8.45;;
23898;SDS011;20544;50.018;20.010;2022-10-16T09:45:54;9.00;;;7.10;;
23898;SDS011;20544;50.018;20.010;2022-10-16T09:49:20;6.18;;;5.33;;
23898;SDS011;20544;50.018;20.010;2022-10-16T09:52:38;7.53;;;5.53;;
23898;SDS011;20544;50.018;20.010;2022-10-16T09:55:55;6.73;;;5.33;;
23898;SDS011;20544;50.018;20.010;2022-10-16T09:59:15;8.18;;;6.58;;
23898;SDS011;20544;50.018;20.010;2022-10-16T10:02:37;11.50;;;8.18;;
23898;SDS011;20544;50.018;20.010;2022-10-16T10:05:54;12.90;;;11.25;;
23898;SDS011;20544;50.018;20.010;2022-10-16T10:09:17;8.70;;;5.85;;
23898;SDS011;20544;50.018;20.010;2022-10-16T10:12:39;7.25;;;5.50;;
23898;SDS011;20544;50.018;20.010;2022-10-16T10:15:58;8.43;;;6.00;;
23898;SDS011;20544;50.018;20.010;2022-10-16T10:19:17;6.23;;;5.60;;
23898;SDS011;20544;50.018;20.010;2022-10-16T10:22:41;9.18;;;5.93;;
23898;SDS011;20544;50.018;20.010;2022-10-16T10:25:59;5.88;;;4.70;;
23898;SDS011;20544;50.018;20.010;2022-10-16T10:29:22;6.83;;;5.25;;
23898;SDS011;20544;50.018;20.010;2022-10-16T10:32:55;7.38;;;5.45;;
23898;SDS011;20544;50.018;20.010;2022-10-16T10:36:25;8.03;;;5.50;;
23898;SDS011;20544;50.018;20.010;2022-10-16T10:39:47;8.23;;;5.93;;
23898;SDS011;20544;50.018;20.010;2022-10-16T10:43:09;7.85;;;5.55;;
23898;SDS011;20544;50.018;20.010;2022-10-16T10:46:34;8.83;;;6.43;;
23898;SDS011;20544;50.018;20.010;2022-10-16T10:49:56;6.90;;;5.40;;
23898;SDS011;20544;50.018;20.010;2022-10-16T10:53:24;6.25;;;5.50;;
23898;SDS011;20544;50.018;20.010;2022-10-16T10:56:50;6.83;;;5.53;;
23898;SDS011;20544;50.018;20.010;2022-10-16T11:00:14;6.80;;;5.73;;
23898;SDS011;20544;50.018;20.010;2022-10-16T11:03:43;6.55;;;5.20;;
23898;SDS011;20544;50.018;20.010;2022-10-16T11:07:22;8.65;;;5.88;;
23898;SDS011;20544;50.018;20.010;2022-10-16T11:10:44;6.63;;;5.10;;
23898;SDS011;20544;50.018;20.010;2022-10-16T11:14:06;8.28;;;5.83;;
23898;SDS011;20544;50.018;20.010;2022-10-16T11:17:29;9.10;;;6.25;;
23898;SDS011;20544;50.018;20.010;2022-10-16T11:20:51;6.08;;;5.48;;
23898;SDS011;20544;50.018;20.010;2022-10-16T11:24:13;5.55;;;5.05;;
23898;SDS011;20544;50.018;20.010;2022-10-16T11:27:35;7.08;;;5.43;;
23898;SDS011;20544;50.018;20.010;2022-10-16T11:30:57;8.03;;;5.60;;
23898;SDS011;20544;50.018;20.010;2022-10-16T11:34:17;30.58;;;26.95;;
23898;SDS011;20544;50.018;20.010;2022-10-16T11:37:44;49.45;;;38.18;;
23898;SDS011;20544;50.018;20.010;2022-10-16T11:41:08;14.45;;;10.35;;
23898;SDS011;20544;50.018;20.010;2022-10-16T11:44:36;8.95;;;6.80;;
23898;SDS011;20544;50.018;20.010;2022-10-16T11:48:04;6.33;;;5.40;;
23898;SDS011;20544;50.018;20.010;2022-10-16T11:51:25;5.98;;;5.38;;
23898;SDS011;20544;50.018;20.010;2022-10-16T11:54:46;5.95;;;5.05;;
23898;SDS011;20544;50.018;20.010;2022-10-16T11:58:06;7.50;;;5.50;;
23898;SDS011;20544;50.018;20.010;2022-10-16T12:01:32;5.58;;;5.08;;
23898;SDS011;20544;50.018;20.010;2022-10-16T12:04:53;7.63;;;4.85;;
23898;SDS011;20544;50.018;20.010;2022-10-16T12:08:13;6.23;;;4.95;;
23898;SDS011;20544;50.018;20.010;2022-10-16T12:11:37;6.00;;;4.63;;
23898;SDS011;20544;50.018;20.010;2022-10-16T12:15:01;6.58;;;5.00;;
23898;SDS011;20544;50.018;20.010;2022-10-16T12:18:38;6.80;;;4.68;;
23898;SDS011;20544;50.018;20.010;2022-10-16T12:21:56;5.93;;;4.70;;
23898;SDS011;20544;50.018;20.010;2022-10-16T12:25:20;6.97;;;4.73;;
23898;SDS011;20544;50.018;20.010;2022-10-16T12:28:41;7.90;;;4.90;;
23898;SDS011;20544;50.018;20.010;2022-10-16T12:31:58;6.88;;;5.50;;
23898;SDS011;20544;50.018;20.010;2022-10-16T12:35:19;6.10;;;5.30;;
23898;SDS011;20544;50.018;20.010;2022-10-16T12:38:48;6.28;;;5.25;;
23898;SDS011;20544;50.018;20.010;2022-10-16T12:42:02;5.30;;;4.80;;
23898;SDS011;20544;50.018;20.010;2022-10-16T12:45:34;6.43;;;4.90;;
23898;SDS011;20544;50.018;20.010;2022-10-16T12:48:52;6.15;;;5.25;;
23898;SDS011;20544;50.018;20.010;2022-10-16T12:52:25;10.65;;;4.83;;
23898;SDS011;20544;50.018;20.010;2022-10-16T12:55:55;5.15;;;4.63;;
23898;SDS011;20544;50.018;20.010;2022-10-16T12:59:19;5.43;;;4.23;;
23898;SDS011;20544;50.018;20.010;2022-10-16T13:06:44;4.30;;;3.88;;
23898;SDS011;20544;50.018;20.010;2022-10-16T13:10:09;4.43;;;4.00;;
23898;SDS011;20544;50.018;20.010;2022-10-16T13:13:44;27.40;;;24.40;;
23898;SDS011;20544;50.018;20.010;2022-10-16T13:17:20;14.05;;;11.58;;
23898;SDS011;20544;50.018;20.010;2022-10-16T13:20:44;9.30;;;6.60;;
23898;SDS011;20544;50.018;20.010;2022-10-16T13:24:14;5.90;;;5.28;;
23898;SDS011;20544;50.018;20.010;2022-10-16T13:27:39;5.58;;;4.93;;
23898;SDS011;20544;50.018;20.010;2022-10-16T13:31:00;6.08;;;4.50;;
23898;SDS011;20544;50.018;20.010;2022-10-16T13:34:20;4.93;;;4.43;;
23898;SDS011;20544;50.018;20.010;2022-10-16T13:37:37;5.68;;;4.65;;
23898;SDS011;20544;50.018;20.010;2022-10-16T13:40:54;6.13;;;4.83;;
23898;SDS011;20544;50.018;20.010;2022-10-16T13:44:14;6.50;;;4.83;;
23898;SDS011;20544;50.018;20.010;2022-10-16T13:47:32;5.65;;;4.93;;
23898;SDS011;20544;50.018;20.010;2022-10-16T13:50:59;4.53;;;4.00;;
23898;SDS011;20544;50.018;20.010;2022-10-16T13:54:20;4.60;;;4.08;;
23898;SDS011;20544;50.018;20.010;2022-10-16T13:57:39;4.20;;;3.75;;
23898;SDS011;20544;50.018;20.010;2022-10-16T14:00:58;5.20;;;3.90;;
23898;SDS011;20544;50.018;20.010;2022-10-16T14:07:31;4.53;;;3.78;;
23898;SDS011;20544;50.018;20.010;2022-10-16T14:10:49;7.93;;;4.30;;
23898;SDS011;20544;50.018;20.010;2022-10-16T14:14:10;4.28;;;3.60;;
23898;SDS011;20544;50.018;20.010;2022-10-16T14:17:28;7.63;;;4.75;;
23898;SDS011;20544;50.018;20.010;2022-10-16T14:20:47;5.73;;;3.45;;
23898;SDS011;20544;50.018;20.010;2022-10-16T14:24:12;4.18;;;3.23;;
23898;SDS011;20544;50.018;20.010;2022-10-16T14:27:39;4.58;;;3.53;;
23898;SDS011;20544;50.018;20.010;2022-10-16T14:30:56;4.33;;;3.30;;
23898;SDS011;20544;50.018;20.010;2022-10-16T14:34:24;5.93;;;3.75;;
23898;SDS011;20544;50.018;20.010;2022-10-16T14:37:43;5.70;;;3.40;;
23898;SDS011;20544;50.018;20.010;2022-10-16T14:41:01;7.08;;;4.20;;
23898;SDS011;20544;50.018;20.010;2022-10-16T14:44:23;6.13;;;4.05;;
23898;SDS011;20544;50.018;20.010;2022-10-16T14:47:48;4.80;;;3.70;;
23898;SDS011;20544;50.018;20.010;2022-10-16T14:51:10;4.90;;;3.73;;
23898;SDS011;20544;50.018;20.010;2022-10-16T14:54:29;7.88;;;5.48;;
23898;SDS011;20544;50.018;20.010;2022-10-16T14:57:45;5.85;;;3.85;;
23898;SDS011;20544;50.018;20.010;2022-10-16T15:01:03;6.18;;;4.25;;
23898;SDS011;20544;50.018;20.010;2022-10-16T15:04:21;4.75;;;3.85;;
23898;SDS011;20544;50.018;20.010;2022-10-16T15:07:38;5.45;;;3.40;;
23898;SDS011;20544;50.018;20.010;2022-10-16T15:10:56;5.38;;;3.93;;
23898;SDS011;20544;50.018;20.010;2022-10-16T15:14:12;4.50;;;3.83;;
23898;SDS011;20544;50.018;20.010;2022-10-16T15:17:29;4.80;;;3.90;;
23898;SDS011;20544;50.018;20.010;2022-10-16T15:20:47;7.95;;;4.35;;
23898;SDS011;20544;50.018;20.010;2022-10-16T15:24:08;5.68;;;4.33;;
23898;SDS011;20544;50.018;20.010;2022-10-16T15:27:26;7.58;;;4.70;;
23898;SDS011;20544;50.018;20.010;2022-10-16T15:30:44;7.18;;;4.98;;
23898;SDS011;20544;50.018;20.010;2022-10-16T15:37:19;6.15;;;4.60;;
23898;SDS011;20544;50.018;20.010;2022-10-16T15:40:36;7.28;;;4.95;;
23898;SDS011;20544;50.018;20.010;2022-10-16T15:43:52;8.83;;;4.38;;
23898;SDS011;20544;50.018;20.010;2022-10-16T15:47:08;7.60;;;4.55;;
23898;SDS011;20544;50.018;20.010;2022-10-16T15:50:25;7.10;;;4.53;;
23898;SDS011;20544;50.018;20.010;2022-10-16T15:53:42;8.23;;;4.78;;
23898;SDS011;20544;50.018;20.010;2022-10-16T15:56:59;7.10;;;4.85;;
23898;SDS011;20544;50.018;20.010;2022-10-16T16:00:16;8.58;;;5.70;;
23898;SDS011;20544;50.018;20.010;2022-10-16T16:03:37;11.83;;;5.55;;
23898;SDS011;20544;50.018;20.010;2022-10-16T16:06:54;9.45;;;6.13;;
23898;SDS011;20544;50.018;20.010;2022-10-16T16:10:13;7.83;;;6.00;;
23898;SDS011;20544;50.018;20.010;2022-10-16T16:13:30;7.43;;;5.85;;
23898;SDS011;20544;50.018;20.010;2022-10-16T16:16:47;8.70;;;7.05;;
23898;SDS011;20544;50.018;20.010;2022-10-16T16:20:05;8.20;;;6.65;;
23898;SDS011;20544;50.018;20.010;2022-10-16T16:26:37;9.20;;;6.70;;
23898;SDS011;20544;50.018;20.010;2022-10-16T16:29:55;9.58;;;6.03;;
23898;SDS011;20544;50.018;20.010;2022-10-16T16:33:14;9.78;;;6.90;;
23898;SDS011;20544;50.018;20.010;2022-10-16T16:36:31;9.68;;;7.25;;
23898;SDS011;20544;50.018;20.010;2022-10-16T16:39:48;8.28;;;6.73;;
23898;SDS011;20544;50.018;20.010;2022-10-16T16:43:09;11.78;;;6.83;;
23898;SDS011;20544;50.018;20.010;2022-10-16T16:46:26;9.10;;;6.80;;
23898;SDS011;20544;50.018;20.010;2022-10-16T16:49:43;11.85;;;7.10;;
23898;SDS011;20544;50.018;20.010;2022-10-16T16:53:00;8.88;;;6.93;;
23898;SDS011;20544;50.018;20.010;2022-10-16T16:56:16;9.63;;;7.75;;
23898;SDS011;20544;50.018;20.010;2022-10-16T16:59:33;13.75;;;8.25;;
23898;SDS011;20544;50.018;20.010;2022-10-16T17:02:50;10.40;;;8.10;;
23898;SDS011;20544;50.018;20.010;2022-10-16T17:06:07;10.95;;;8.58;;
23898;SDS011;20544;50.018;20.010;2022-10-16T17:09:26;10.65;;;8.78;;
23898;SDS011;20544;50.018;20.010;2022-10-16T17:12:43;11.38;;;8.85;;
23898;SDS011;20544;50.018;20.010;2022-10-16T17:15:59;15.65;;;9.35;;
23898;SDS011;20544;50.018;20.010;2022-10-16T17:19:16;11.70;;;9.80;;
23898;SDS011;20544;50.018;20.010;2022-10-16T17:25:47;10.33;;;8.53;;
23898;SDS011;20544;50.018;20.010;2022-10-16T17:29:05;12.03;;;9.67;;
23898;SDS011;20544;50.018;20.010;2022-10-16T17:35:38;16.45;;;11.15;;
23898;SDS011;20544;50.018;20.010;2022-10-16T17:39:02;13.18;;;10.03;;
23898;SDS011;20544;50.018;20.010;2022-10-16T17:42:23;13.25;;;9.75;;
23898;SDS011;20544;50.018;20.010;2022-10-16T17:45:39;13.73;;;9.28;;
23898;SDS011;20544;50.018;20.010;2022-10-16T17:48:55;14.83;;;9.93;;
23898;SDS011;20544;50.018;20.010;2022-10-16T17:52:12;11.88;;;9.45;;
23898;SDS011;20544;50.018;20.010;2022-10-16T17:55:30;11.78;;;9.53;;
23898;SDS011;20544;50.018;20.010;2022-10-16T17:58:50;11.08;;;9.55;;
23898;SDS011;20544;50.018;20.010;2022-10-16T18:02:10;12.33;;;9.60;;
23898;SDS011;20544;50.018;20.010;2022-10-16T18:05:26;11.10;;;9.00;;
23898;SDS011;20544;50.018;20.010;2022-10-16T18:08:43;11.35;;;9.60;;
23898;SDS011;20544;50.018;20.010;2022-10-16T18:11:59;12.55;;;10.25;;
23898;SDS011;20544;50.018;20.010;2022-10-16T18:15:19;11.13;;;9.65;;
23898;SDS011;20544;50.018;20.010;2022-10-16T18:18:38;11.35;;;9.20;;
23898;SDS011;20544;50.018;20.010;2022-10-16T18:21:57;11.05;;;9.18;;
23898;SDS011;20544;50.018;20.010;2022-10-16T18:25:13;10.50;;;8.65;;
23898;SDS011;20544;50.018;20.010;2022-10-16T18:28:30;11.78;;;8.45;;
23898;SDS011;20544;50.018;20.010;2022-10-16T18:31:49;11.00;;;8.63;;
23898;SDS011;20544;50.018;20.010;2022-10-16T18:35:07;10.15;;;8.93;;
23898;SDS011;20544;50.018;20.010;2022-10-16T18:38:23;10.93;;;9.20;;
23898;SDS011;20544;50.018;20.010;2022-10-16T18:41:40;12.63;;;9.40;;
23898;SDS011;20544;50.018;20.010;2022-10-16T18:44:59;12.78;;;9.38;;
23898;SDS011;20544;50.018;20.010;2022-10-16T18:48:17;13.83;;;9.60;;
23898;SDS011;20544;50.018;20.010;2022-10-16T18:51:34;13.45;;;9.53;;
23898;SDS011;20544;50.018;20.010;2022-10-16T18:54:56;12.08;;;9.08;;
23898;SDS011;20544;50.018;20.010;2022-10-16T18:58:12;12.45;;;9.63;;
23898;SDS011;20544;50.018;20.010;2022-10-16T19:01:31;12.38;;;9.00;;
23898;SDS011;20544;50.018;20.010;2022-10-16T19:04:49;11.73;;;9.35;;
23898;SDS011;20544;50.018;20.010;2022-10-16T19:08:07;11.38;;;9.25;;
23898;SDS011;20544;50.018;20.010;2022-10-16T19:11:25;10.80;;;9.00;;
23898;SDS011;20544;50.018;20.010;2022-10-16T19:14:44;11.95;;;9.03;;
23898;SDS011;20544;50.018;20.010;2022-10-16T19:18:02;15.53;;;10.55;;
23898;SDS011;20544;50.018;20.010;2022-10-16T19:21:19;13.33;;;10.60;;
23898;SDS011;20544;50.018;20.010;2022-10-16T19:24:37;12.10;;;10.40;;
23898;SDS011;20544;50.018;20.010;2022-10-16T19:27:54;15.23;;;10.95;;
23898;SDS011;20544;50.018;20.010;2022-10-16T19:31:15;14.13;;;10.48;;
23898;SDS011;20544;50.018;20.010;2022-10-16T19:37:49;12.63;;;10.90;;
23898;SDS011;20544;50.018;20.010;2022-10-16T19:41:08;16.00;;;10.90;;
23898;SDS011;20544;50.018;20.010;2022-10-16T19:44:26;15.78;;;11.35;;
23898;SDS011;20544;50.018;20.010;2022-10-16T19:47:43;11.83;;;9.93;;
23898;SDS011;20544;50.018;20.010;2022-10-16T19:51:00;27.93;;;10.60;;
23898;SDS011;20544;50.018;20.010;2022-10-16T19:54:17;14.55;;;10.00;;
23898;SDS011;20544;50.018;20.010;2022-10-16T19:57:34;13.35;;;9.88;;
23898;SDS011;20544;50.018;20.010;2022-10-16T20:00:51;14.50;;;10.05;;
23898;SDS011;20544;50.018;20.010;2022-10-16T20:04:07;13.13;;;10.70;;